Pleasant Hill, Missouri
Current Conditions -  °F | °C
As of 9:53 PM on Friday 28 Nov 2014 (Local Time) from KLXT Reporting Station
Clear Clear  
Wind Chill: 12°   Ceiling: Unl
Heat Index: 12°   Visibility: 10mi
Dew Point:   Wind: 13mph
Humidity: 57%   Direction: 210°SSW
Pressure: 29.76"   Gusts: NA
Location:  38.79°N, 94.27°W
Report Text: KLXT 290353Z AUTO 21011KT 10SM CLR 12/03 A2976 RMK AO2 SLP080 T01170033 TSNO
Loading
Personal Weather Stations






























Interactive Weather Map New forecast layout! Learn more

10-Day Weather Forecast

Advertisements
Track Severe Weather on mobile